PWSweather.com
Personal Weather Stations
Station Observations
KOHCLEVE171
Cleveland, OH

Cleveland, OH

Lat: 41.48646164, Lon: -81.46408081

Elevation: 1059

Station Type:

High Low Average
Temperature 36.7°F2.6°C 4.1°F-15.5°C 21.2°F-6.0°C
Dew Point 35.6°F2.0°C -2.6°F-19.2°C 15.1°F-9.4°C
Winds 9.4 mph 15.1 kmh 0.4 mph 0.6 kmh 4.0 mph S6.4 kmh S
Wind Gusts 18.3 mph29.5 kmh 0.4 mph0.6 kmh 7.0 mph11.3 kmh
Humidity 96% 60% 77%
Pressure 30.16 in1021.3 mb 29.64 in1003.7 mb -
Precipitation 0.28 in7.1 mm - -
Hour Temp Dew Point Humidity Winds Wind Gusts Pressure Precip Precip Rate Daily Precip Total
12:04 AM 11.3°F-11.5°C 5.2°F-14.9°C 76% 0.9 mph NW1.4 kmh NW 2.2 mph3.5 kmh 30.17 in1021.7 mb 0.00 in0.0 mm 0.00 in0.0 mm 0.00 in0.0 mm
12:09 AM 11.3°F-11.5°C 5.0°F-15.0°C 75% 0.9 mph S1.4 kmh S 2.5 mph4.0 kmh 30.16 in1021.3 mb 0.00 in0.0 mm 0.00 in0.0 mm 0.00 in0.0 mm
12:14 AM 11.5°F-11.4°C 5.2°F-14.9°C 75% 1.3 mph SW2.1 kmh SW 2.2 mph3.5 kmh 30.16 in1021.3 mb 0.00 in0.0 mm 0.00 in0.0 mm 0.00 in0.0 mm
12:19 AM 11.5°F-11.4°C 5.2°F-14.9°C 75% 0.4 mph NW0.6 kmh NW 0.7 mph1.1 kmh 30.16 in1021.3 mb 0.00 in0.0 mm 0.00 in0.0 mm 0.00 in0.0 mm
12:24 AM 10.9°F-11.7°C 4.6°F-15.2°C 75% 2.7 mph SE4.3 kmh SE 2.9 mph4.7 kmh 30.16 in1021.3 mb 0.00 in0.0 mm 0.00 in0.0 mm 0.00 in0.0 mm
12:29 AM 10.9°F-11.7°C 4.3°F-15.4°C 74% 2.9 mph SE4.7 kmh SE 3.1 mph5.0 kmh 30.16 in1021.3 mb 0.00 in0.0 mm 0.00 in0.0 mm 0.00 in0.0 mm
12:34 AM 11.1°F-11.6°C 4.5°F-15.3°C 74% 1.6 mph NW2.6 kmh NW 2.2 mph3.5 kmh 30.17 in1021.7 mb 0.00 in0.0 mm 0.00 in0.0 mm 0.00 in0.0 mm
12:39 AM 10.6°F-11.9°C 4.3°F-15.4°C 75% 0.2 mph NW0.3 kmh NW 1.8 mph2.9 kmh 30.16 in1021.3 mb 0.00 in0.0 mm 0.00 in0.0 mm 0.00 in0.0 mm
12:44 AM 10.6°F-11.9°C 4.3°F-15.4°C 75% 0.7 mph NW1.1 kmh NW 2.5 mph4.0 kmh 30.16 in1021.3 mb 0.00 in0.0 mm 0.00 in0.0 mm 0.00 in0.0 mm
12:49 AM 10.6°F-11.9°C 4.3°F-15.4°C 75% 1.3 mph SW2.1 kmh SW 2.7 mph4.3 kmh 30.15 in1021.0 mb 0.00 in0.0 mm 0.00 in0.0 mm 0.00 in0.0 mm
12:54 AM 10.2°F-12.1°C 3.6°F-15.8°C 74% 1.8 mph NW2.9 kmh NW 2.2 mph3.5 kmh 30.16 in1021.3 mb 0.00 in0.0 mm 0.00 in0.0 mm 0.00 in0.0 mm
01:04 AM 10.0°F-12.2°C 3.7°F-15.7°C 75% 1.3 mph S2.1 kmh S 3.1 mph5.0 kmh 30.15 in1021.0 mb 0.00 in0.0 mm 0.00 in0.0 mm 0.00 in0.0 mm
01:09 AM 9.7°F-12.4°C 3.0°F-16.1°C 74% 2.2 mph NW3.5 kmh NW 2.5 mph4.0 kmh 30.15 in1021.0 mb 0.00 in0.0 mm 0.00 in0.0 mm 0.00 in0.0 mm
01:14 AM 9.0°F-12.8°C 2.3°F-16.5°C 74% 1.1 mph SW1.8 kmh SW 2.9 mph4.7 kmh 30.15 in1021.0 mb 0.00 in0.0 mm 0.00 in0.0 mm 0.00 in0.0 mm
01:19 AM 9.1°F-12.7°C 2.8°F-16.2°C 75% 0.4 mph SW0.6 kmh SW 0.7 mph1.1 kmh 30.15 in1021.0 mb 0.00 in0.0 mm 0.00 in0.0 mm 0.00 in0.0 mm
01:24 AM 9.3°F-12.6°C 3.0°F-16.1°C 75% 0.7 mph SW1.1 kmh SW 1.1 mph1.8 kmh 30.15 in1021.0 mb 0.00 in0.0 mm 0.00 in0.0 mm 0.00 in0.0 mm
01:29 AM 9.3°F-12.6°C 3.0°F-16.1°C 75% 0.4 mph SW0.6 kmh SW 0.7 mph1.1 kmh 30.16 in1021.3 mb 0.00 in0.0 mm 0.00 in0.0 mm 0.00 in0.0 mm
01:34 AM 8.6°F-13.0°C 2.3°F-16.5°C 75% 0.9 mph SW1.4 kmh SW 3.8 mph6.1 kmh 30.16 in1021.3 mb 0.00 in0.0 mm 0.00 in0.0 mm 0.00 in0.0 mm
01:39 AM 8.8°F-12.9°C 2.5°F-16.4°C 75% 0.7 mph SW1.1 kmh SW 0.7 mph1.1 kmh 30.16 in1021.3 mb 0.00 in0.0 mm 0.00 in0.0 mm 0.00 in0.0 mm
01:44 AM 8.8°F-12.9°C 2.5°F-16.4°C 75% 1.6 mph SW2.6 kmh SW 3.4 mph5.5 kmh 30.16 in1021.3 mb 0.00 in0.0 mm 0.00 in0.0 mm 0.00 in0.0 mm
01:49 AM 8.4°F-13.1°C 1.8°F-16.8°C 74% 0.7 mph SW1.1 kmh SW 0.9 mph1.4 kmh 30.15 in1021.0 mb 0.00 in0.0 mm 0.00 in0.0 mm 0.00 in0.0 mm
01:54 AM 7.9°F-13.4°C 1.4°F-17.0°C 74% 0.7 mph SW1.1 kmh SW 0.9 mph1.4 kmh 30.15 in1021.0 mb 0.00 in0.0 mm 0.00 in0.0 mm 0.00 in0.0 mm
01:59 AM 7.0°F-13.9°C 0.1°F-17.7°C 73% 0.7 mph SW1.1 kmh SW 0.9 mph1.4 kmh 30.15 in1021.0 mb 0.00 in0.0 mm 0.00 in0.0 mm 0.00 in0.0 mm
02:04 AM 6.8°F-14.0°C 0.3°F-17.6°C 74% 0.7 mph SW1.1 kmh SW 0.9 mph1.4 kmh 30.15 in1021.0 mb 0.00 in0.0 mm 0.00 in0.0 mm 0.00 in0.0 mm
02:09 AM 7.0°F-13.9°C 0.7°F-17.4°C 75% 0.4 mph SW0.6 kmh SW 0.7 mph1.1 kmh 30.14 in1020.7 mb 0.00 in0.0 mm 0.00 in0.0 mm 0.00 in0.0 mm
02:14 AM 6.8°F-14.0°C 0.5°F-17.5°C 75% 0.7 mph SW1.1 kmh SW 0.9 mph1.4 kmh 30.16 in1021.3 mb 0.00 in0.0 mm 0.00 in0.0 mm 0.00 in0.0 mm
02:19 AM 7.3°F-13.7°C 1.0°F-17.2°C 75% 0.4 mph SW0.6 kmh SW 0.4 mph0.6 kmh 30.16 in1021.3 mb 0.00 in0.0 mm 0.00 in0.0 mm 0.00 in0.0 mm
02:24 AM 7.3°F-13.7°C 0.9°F-17.3°C 74% 2.2 mph SW3.5 kmh SW 4.0 mph6.4 kmh 30.15 in1021.0 mb 0.00 in0.0 mm 0.00 in0.0 mm 0.00 in0.0 mm
02:29 AM 7.3°F-13.7°C 0.9°F-17.3°C 74% 1.3 mph SW2.1 kmh SW 4.0 mph6.4 kmh 30.14 in1020.7 mb 0.00 in0.0 mm 0.00 in0.0 mm 0.00 in0.0 mm
02:34 AM 7.2°F-13.8°C 0.7°F-17.4°C 74% 2.0 mph SW3.2 kmh SW 4.0 mph6.4 kmh 30.14 in1020.7 mb 0.00 in0.0 mm 0.00 in0.0 mm 0.00 in0.0 mm
02:39 AM 7.0°F-13.9°C 0.5°F-17.5°C 74% 0.7 mph SW1.1 kmh SW 0.9 mph1.4 kmh 30.14 in1020.7 mb 0.00 in0.0 mm 0.00 in0.0 mm 0.00 in0.0 mm
02:44 AM 6.8°F-14.0°C 0.0°F-17.8°C 73% 0.7 mph SW1.1 kmh SW 0.9 mph1.4 kmh 30.14 in1020.7 mb 0.00 in0.0 mm 0.00 in0.0 mm 0.00 in0.0 mm
02:49 AM 6.8°F-14.0°C 0.0°F-17.8°C 73% 0.7 mph SW1.1 kmh SW 0.7 mph1.1 kmh 30.14 in1020.7 mb 0.00 in0.0 mm 0.00 in0.0 mm 0.00 in0.0 mm
02:54 AM 6.8°F-14.0°C 0.0°F-17.8°C 73% 0.7 mph SW1.1 kmh SW 0.7 mph1.1 kmh 30.14 in1020.7 mb 0.00 in0.0 mm 0.00 in0.0 mm 0.00 in0.0 mm
02:59 AM 6.4°F-14.2°C 0.0°F-17.8°C 74% 2.2 mph SW3.5 kmh SW 4.5 mph7.2 kmh 30.13 in1020.3 mb 0.00 in0.0 mm 0.00 in0.0 mm 0.00 in0.0 mm
03:04 AM 6.3°F-14.3°C -0.2°F-17.9°C 74% 3.4 mph NW5.5 kmh NW 3.8 mph6.1 kmh 30.13 in1020.3 mb 0.00 in0.0 mm 0.00 in0.0 mm 0.00 in0.0 mm
03:09 AM 5.5°F-14.7°C -1.3°F-18.5°C 73% 3.8 mph S6.1 kmh S 4.7 mph7.6 kmh 30.13 in1020.3 mb 0.00 in0.0 mm 0.00 in0.0 mm 0.00 in0.0 mm
03:14 AM 5.4°F-14.8°C -1.1°F-18.4°C 74% 2.7 mph SSW4.3 kmh SSW 4.9 mph7.9 kmh 30.13 in1020.3 mb 0.00 in0.0 mm 0.00 in0.0 mm 0.00 in0.0 mm
03:19 AM 5.4°F-14.8°C -1.1°F-18.4°C 74% 3.1 mph SSW5.0 kmh SSW 4.9 mph7.9 kmh 30.13 in1020.3 mb 0.00 in0.0 mm 0.00 in0.0 mm 0.00 in0.0 mm
03:24 AM 5.4°F-14.8°C -1.1°F-18.4°C 74% 1.8 mph W2.9 kmh W 4.0 mph6.4 kmh 30.13 in1020.3 mb 0.00 in0.0 mm 0.00 in0.0 mm 0.00 in0.0 mm
03:29 AM 5.4°F-14.8°C -1.1°F-18.4°C 74% 3.4 mph SSW5.5 kmh SSW 5.1 mph8.2 kmh 30.13 in1020.3 mb 0.00 in0.0 mm 0.00 in0.0 mm 0.00 in0.0 mm
03:34 AM 4.3°F-15.4°C -2.4°F-19.1°C 73% 0.7 mph NW1.1 kmh NW 3.8 mph6.1 kmh 30.13 in1020.3 mb 0.00 in0.0 mm 0.00 in0.0 mm 0.00 in0.0 mm
03:39 AM 4.6°F-15.2°C -1.8°F-18.8°C 74% 1.6 mph NW2.6 kmh NW 4.0 mph6.4 kmh 30.13 in1020.3 mb 0.00 in0.0 mm 0.00 in0.0 mm 0.00 in0.0 mm
03:44 AM 5.0°F-15.0°C -1.5°F-18.6°C 74% 0.9 mph NW1.4 kmh NW 3.4 mph5.5 kmh 30.14 in1020.7 mb 0.00 in0.0 mm 0.00 in0.0 mm 0.00 in0.0 mm
03:49 AM 5.4°F-14.8°C -1.1°F-18.4°C 74% 0.7 mph NW1.1 kmh NW 0.9 mph1.4 kmh 30.14 in1020.7 mb 0.00 in0.0 mm 0.00 in0.0 mm 0.00 in0.0 mm
03:54 AM 5.2°F-14.9°C -1.7°F-18.7°C 73% 3.8 mph NW6.1 kmh NW 4.0 mph6.4 kmh 30.13 in1020.3 mb 0.00 in0.0 mm 0.00 in0.0 mm 0.00 in0.0 mm
03:59 AM 5.0°F-15.0°C -1.8°F-18.8°C 73% 1.1 mph NW1.8 kmh NW 3.8 mph6.1 kmh 30.13 in1020.3 mb 0.00 in0.0 mm 0.00 in0.0 mm 0.00 in0.0 mm
04:04 AM 5.0°F-15.0°C -1.8°F-18.8°C 73% 0.7 mph NW1.1 kmh NW 0.7 mph1.1 kmh 30.12 in1020.0 mb 0.00 in0.0 mm 0.00 in0.0 mm 0.00 in0.0 mm
04:09 AM 5.0°F-15.0°C -1.8°F-18.8°C 73% 2.9 mph SSW4.7 kmh SSW 4.0 mph6.4 kmh 30.12 in1020.0 mb 0.00 in0.0 mm 0.00 in0.0 mm 0.00 in0.0 mm
04:14 AM 4.8°F-15.1°C -2.0°F-18.9°C 73% 2.7 mph SW4.3 kmh SW 4.5 mph7.2 kmh 30.12 in1020.0 mb 0.00 in0.0 mm 0.00 in0.0 mm 0.00 in0.0 mm
04:19 AM 4.6°F-15.2°C -2.2°F-19.0°C 73% 1.3 mph NW2.1 kmh NW 3.6 mph5.8 kmh 30.12 in1020.0 mb 0.00 in0.0 mm 0.00 in0.0 mm 0.00 in0.0 mm
04:24 AM 4.5°F-15.3°C -2.2°F-19.0°C 73% 0.7 mph NW1.1 kmh NW 0.9 mph1.4 kmh 30.11 in1019.6 mb 0.00 in0.0 mm 0.00 in0.0 mm 0.00 in0.0 mm
04:29 AM 4.5°F-15.3°C -2.2°F-19.0°C 73% 1.1 mph NW1.8 kmh NW 3.4 mph5.5 kmh 30.11 in1019.6 mb 0.00 in0.0 mm 0.00 in0.0 mm 0.00 in0.0 mm
04:34 AM 4.5°F-15.3°C -2.2°F-19.0°C 73% 0.7 mph NW1.1 kmh NW 0.7 mph1.1 kmh 30.11 in1019.6 mb 0.00 in0.0 mm 0.00 in0.0 mm 0.00 in0.0 mm
04:39 AM 4.5°F-15.3°C -2.0°F-18.9°C 74% 0.7 mph NW1.1 kmh NW 1.1 mph1.8 kmh 30.11 in1019.6 mb 0.00 in0.0 mm 0.00 in0.0 mm 0.00 in0.0 mm
04:44 AM 4.6°F-15.2°C -1.8°F-18.8°C 74% 0.7 mph NW1.1 kmh NW 0.9 mph1.4 kmh 30.11 in1019.6 mb 0.00 in0.0 mm 0.00 in0.0 mm 0.00 in0.0 mm
04:49 AM 4.6°F-15.2°C -2.2°F-19.0°C 73% 1.1 mph NW1.8 kmh NW 4.0 mph6.4 kmh 30.11 in1019.6 mb 0.00 in0.0 mm 0.00 in0.0 mm 0.00 in0.0 mm
04:54 AM 4.5°F-15.3°C -2.2°F-19.0°C 73% 0.7 mph NW1.1 kmh NW 0.7 mph1.1 kmh 30.11 in1019.6 mb 0.00 in0.0 mm 0.00 in0.0 mm 0.00 in0.0 mm
04:59 AM 4.3°F-15.4°C -2.4°F-19.1°C 73% 0.9 mph NW1.4 kmh NW 4.0 mph6.4 kmh 30.11 in1019.6 mb 0.00 in0.0 mm 0.00 in0.0 mm 0.00 in0.0 mm
05:04 AM 4.5°F-15.3°C -2.2°F-19.0°C 73% 0.7 mph NW1.1 kmh NW 0.9 mph1.4 kmh 30.11 in1019.6 mb 0.00 in0.0 mm 0.00 in0.0 mm 0.00 in0.0 mm
05:09 AM 4.1°F-15.5°C -2.6°F-19.2°C 73% 1.1 mph NW1.8 kmh NW 4.0 mph6.4 kmh 30.11 in1019.6 mb 0.00 in0.0 mm 0.00 in0.0 mm 0.00 in0.0 mm
05:14 AM 4.1°F-15.5°C -2.6°F-19.2°C 73% 0.9 mph NW1.4 kmh NW 1.1 mph1.8 kmh 30.11 in1019.6 mb 0.00 in0.0 mm 0.00 in0.0 mm 0.00 in0.0 mm
05:19 AM 4.3°F-15.4°C -2.2°F-19.0°C 74% 2.2 mph WSW3.5 kmh WSW 4.5 mph7.2 kmh 30.10 in1019.3 mb 0.00 in0.0 mm 0.00 in0.0 mm 0.00 in0.0 mm
05:24 AM 4.6°F-15.2°C -1.5°F-18.6°C 75% 0.7 mph SW1.1 kmh SW 0.9 mph1.4 kmh 30.10 in1019.3 mb 0.00 in0.0 mm 0.00 in0.0 mm 0.00 in0.0 mm
05:29 AM 4.5°F-15.3°C -2.0°F-18.9°C 74% 0.9 mph SW1.4 kmh SW 1.1 mph1.8 kmh 30.10 in1019.3 mb 0.00 in0.0 mm 0.00 in0.0 mm 0.00 in0.0 mm
05:34 AM 4.6°F-15.2°C -1.3°F-18.5°C 76% 0.4 mph SW0.6 kmh SW 0.7 mph1.1 kmh 30.10 in1019.3 mb 0.00 in0.0 mm 0.00 in0.0 mm 0.00 in0.0 mm
05:39 AM 5.0°F-15.0°C -0.9°F-18.3°C 76% 0.7 mph SW1.1 kmh SW 0.9 mph1.4 kmh 30.10 in1019.3 mb 0.00 in0.0 mm 0.00 in0.0 mm 0.00 in0.0 mm
05:44 AM 5.4°F-14.8°C 0.0°F-17.8°C 78% 0.4 mph SW0.6 kmh SW 0.7 mph1.1 kmh 30.10 in1019.3 mb 0.00 in0.0 mm 0.00 in0.0 mm 0.00 in0.0 mm
05:49 AM 5.4°F-14.8°C 0.3°F-17.6°C 79% 2.5 mph WNW4.0 kmh WNW 4.5 mph7.2 kmh 30.10 in1019.3 mb 0.00 in0.0 mm 0.00 in0.0 mm 0.00 in0.0 mm
05:54 AM 5.7°F-14.6°C 0.3°F-17.6°C 78% 2.7 mph S4.3 kmh S 4.3 mph6.9 kmh 30.09 in1019.0 mb 0.00 in0.0 mm 0.00 in0.0 mm 0.00 in0.0 mm
05:59 AM 5.7°F-14.6°C -0.2°F-17.9°C 76% 1.8 mph NW2.9 kmh NW 3.1 mph5.0 kmh 30.09 in1019.0 mb 0.00 in0.0 mm 0.00 in0.0 mm 0.00 in0.0 mm
06:04 AM 5.7°F-14.6°C -0.2°F-17.9°C 76% 1.6 mph WNW2.6 kmh WNW 2.9 mph4.7 kmh 30.10 in1019.3 mb 0.00 in0.0 mm 0.00 in0.0 mm 0.00 in0.0 mm
06:09 AM 5.9°F-14.5°C 0.0°F-17.8°C 76% 2.5 mph S4.0 kmh S 2.9 mph4.7 kmh 30.10 in1019.3 mb 0.00 in0.0 mm 0.00 in0.0 mm 0.00 in0.0 mm
06:14 AM 5.7°F-14.6°C -0.2°F-17.9°C 76% 2.2 mph NNW3.5 kmh NNW 2.7 mph4.3 kmh 30.10 in1019.3 mb 0.00 in0.0 mm 0.00 in0.0 mm 0.00 in0.0 mm
06:19 AM 6.1°F-14.4°C 0.7°F-17.4°C 78% 3.1 mph S5.0 kmh S 4.7 mph7.6 kmh 30.10 in1019.3 mb 0.00 in0.0 mm 0.00 in0.0 mm 0.00 in0.0 mm
06:24 AM 6.1°F-14.4°C 1.0°F-17.2°C 79% 1.8 mph SSE2.9 kmh SSE 3.4 mph5.5 kmh 30.09 in1019.0 mb 0.00 in0.0 mm 0.00 in0.0 mm 0.00 in0.0 mm
06:29 AM 6.8°F-14.0°C 1.6°F-16.9°C 79% 1.8 mph SSE2.9 kmh SSE 3.1 mph5.0 kmh 30.08 in1018.6 mb 0.00 in0.0 mm 0.00 in0.0 mm 0.00 in0.0 mm
06:34 AM 6.6°F-14.1°C 1.6°F-16.9°C 79% 1.3 mph SSE2.1 kmh SSE 1.8 mph2.9 kmh 30.08 in1018.6 mb 0.00 in0.0 mm 0.00 in0.0 mm 0.00 in0.0 mm
06:39 AM 7.0°F-13.9°C 1.8°F-16.8°C 79% 2.9 mph SE4.7 kmh SE 2.9 mph4.7 kmh 30.08 in1018.6 mb 0.00 in0.0 mm 0.00 in0.0 mm 0.00 in0.0 mm
06:44 AM 7.5°F-13.6°C 2.3°F-16.5°C 79% 2.7 mph NE4.3 kmh NE 4.0 mph6.4 kmh 30.08 in1018.6 mb 0.00 in0.0 mm 0.00 in0.0 mm 0.00 in0.0 mm
06:49 AM 7.5°F-13.6°C 2.3°F-16.5°C 79% 2.2 mph E3.5 kmh E 2.7 mph4.3 kmh 30.08 in1018.6 mb 0.00 in0.0 mm 0.00 in0.0 mm 0.00 in0.0 mm
06:54 AM 8.1°F-13.3°C 2.8°F-16.2°C 79% 3.1 mph E5.0 kmh E 3.4 mph5.5 kmh 30.08 in1018.6 mb 0.00 in0.0 mm 0.00 in0.0 mm 0.00 in0.0 mm
06:59 AM 8.2°F-13.2°C 3.0°F-16.1°C 79% 3.1 mph E5.0 kmh E 3.6 mph5.8 kmh 30.07 in1018.3 mb 0.00 in0.0 mm 0.00 in0.0 mm 0.00 in0.0 mm
07:04 AM 8.6°F-13.0°C 3.4°F-15.9°C 79% 2.9 mph ESE4.7 kmh ESE 3.4 mph5.5 kmh 30.07 in1018.3 mb 0.00 in0.0 mm 0.00 in0.0 mm 0.00 in0.0 mm
07:09 AM 8.8°F-12.9°C 3.4°F-15.9°C 78% 2.7 mph ESE4.3 kmh ESE 3.4 mph5.5 kmh 30.07 in1018.3 mb 0.00 in0.0 mm 0.00 in0.0 mm 0.00 in0.0 mm
07:14 AM 9.0°F-12.8°C 3.7°F-15.7°C 79% 3.1 mph SE5.0 kmh SE 3.6 mph5.8 kmh 30.06 in1017.9 mb 0.00 in0.0 mm 0.00 in0.0 mm 0.00 in0.0 mm
07:19 AM 8.8°F-12.9°C 3.6°F-15.8°C 79% 2.9 mph SE4.7 kmh SE 3.6 mph5.8 kmh 30.06 in1017.9 mb 0.00 in0.0 mm 0.00 in0.0 mm 0.00 in0.0 mm
07:24 AM 8.8°F-12.9°C 3.9°F-15.6°C 80% 1.3 mph SSE2.1 kmh SSE 3.1 mph5.0 kmh 30.06 in1017.9 mb 0.00 in0.0 mm 0.00 in0.0 mm 0.00 in0.0 mm
07:29 AM 8.8°F-12.9°C 3.9°F-15.6°C 80% 1.3 mph SE2.1 kmh SE 2.9 mph4.7 kmh 30.06 in1017.9 mb 0.00 in0.0 mm 0.00 in0.0 mm 0.00 in0.0 mm
07:34 AM 9.0°F-12.8°C 4.3°F-15.4°C 81% 2.2 mph SE3.5 kmh SE 3.4 mph5.5 kmh 30.06 in1017.9 mb 0.00 in0.0 mm 0.00 in0.0 mm 0.00 in0.0 mm
07:39 AM 9.3°F-12.6°C 4.6°F-15.2°C 81% 1.3 mph SE2.1 kmh SE 2.9 mph4.7 kmh 30.06 in1017.9 mb 0.00 in0.0 mm 0.00 in0.0 mm 0.00 in0.0 mm
07:44 AM 9.3°F-12.6°C 4.6°F-15.2°C 81% 2.9 mph ESE4.7 kmh ESE 3.1 mph5.0 kmh 30.07 in1018.3 mb 0.00 in0.0 mm 0.00 in0.0 mm 0.00 in0.0 mm
07:49 AM 9.7°F-12.4°C 5.0°F-15.0°C 81% 2.2 mph SE3.5 kmh SE 3.1 mph5.0 kmh 30.07 in1018.3 mb 0.00 in0.0 mm 0.00 in0.0 mm 0.00 in0.0 mm
07:54 AM 9.9°F-12.3°C 5.2°F-14.9°C 81% 2.9 mph SE4.7 kmh SE 3.6 mph5.8 kmh 30.07 in1018.3 mb 0.00 in0.0 mm 0.00 in0.0 mm 0.00 in0.0 mm
07:59 AM 10.0°F-12.2°C 5.4°F-14.8°C 81% 2.9 mph ESE4.7 kmh ESE 3.4 mph5.5 kmh 30.07 in1018.3 mb 0.00 in0.0 mm 0.00 in0.0 mm 0.00 in0.0 mm
08:04 AM 10.4°F-12.0°C 5.7°F-14.6°C 81% 2.7 mph ESE4.3 kmh ESE 3.1 mph5.0 kmh 30.07 in1018.3 mb 0.00 in0.0 mm 0.00 in0.0 mm 0.00 in0.0 mm
08:09 AM 10.9°F-11.7°C 6.3°F-14.3°C 81% 2.9 mph ESE4.7 kmh ESE 3.4 mph5.5 kmh 30.07 in1018.3 mb 0.00 in0.0 mm 0.00 in0.0 mm 0.00 in0.0 mm
08:14 AM 11.3°F-11.5°C 6.6°F-14.1°C 81% 2.5 mph SE4.0 kmh SE 3.4 mph5.5 kmh 30.07 in1018.3 mb 0.00 in0.0 mm 0.00 in0.0 mm 0.00 in0.0 mm
08:19 AM 11.1°F-11.6°C 6.1°F-14.4°C 80% 2.2 mph SE3.5 kmh SE 3.6 mph5.8 kmh 30.07 in1018.3 mb 0.00 in0.0 mm 0.00 in0.0 mm 0.00 in0.0 mm
08:24 AM 10.8°F-11.8°C 6.1°F-14.4°C 81% 1.8 mph SE2.9 kmh SE 3.1 mph5.0 kmh 30.07 in1018.3 mb 0.00 in0.0 mm 0.00 in0.0 mm 0.00 in0.0 mm
08:29 AM 11.1°F-11.6°C 6.4°F-14.2°C 81% 1.8 mph SE2.9 kmh SE 3.4 mph5.5 kmh 30.07 in1018.3 mb 0.00 in0.0 mm 0.00 in0.0 mm 0.00 in0.0 mm
08:34 AM 10.9°F-11.7°C 6.3°F-14.3°C 81% 2.2 mph SE3.5 kmh SE 4.0 mph6.4 kmh 30.06 in1017.9 mb 0.00 in0.0 mm 0.00 in0.0 mm 0.00 in0.0 mm
08:39 AM 11.3°F-11.5°C 6.6°F-14.1°C 81% 2.9 mph SE4.7 kmh SE 4.3 mph6.9 kmh 30.05 in1017.6 mb 0.00 in0.0 mm 0.00 in0.0 mm 0.00 in0.0 mm
08:44 AM 11.5°F-11.4°C 6.8°F-14.0°C 81% 3.1 mph SE5.0 kmh SE 5.1 mph8.2 kmh 30.05 in1017.6 mb 0.00 in0.0 mm 0.00 in0.0 mm 0.00 in0.0 mm
08:49 AM 11.7°F-11.3°C 6.6°F-14.1°C 80% 3.1 mph SE5.0 kmh SE 5.6 mph9.0 kmh 30.04 in1017.3 mb 0.00 in0.0 mm 0.00 in0.0 mm 0.00 in0.0 mm
08:54 AM 11.7°F-11.3°C 6.6°F-14.1°C 80% 2.9 mph SE4.7 kmh SE 4.7 mph7.6 kmh 30.04 in1017.3 mb 0.00 in0.0 mm 0.00 in0.0 mm 0.00 in0.0 mm
08:59 AM 11.8°F-11.2°C 6.8°F-14.0°C 80% 2.5 mph SSE4.0 kmh SSE 4.0 mph6.4 kmh 30.03 in1016.9 mb 0.00 in0.0 mm 0.00 in0.0 mm 0.00 in0.0 mm
09:04 AM 12.0°F-11.1°C 6.8°F-14.0°C 79% 2.9 mph SE4.7 kmh SE 4.5 mph7.2 kmh 30.03 in1016.9 mb 0.00 in0.0 mm 0.00 in0.0 mm 0.00 in0.0 mm
09:09 AM 12.2°F-11.0°C 7.0°F-13.9°C 79% 2.0 mph SE3.2 kmh SE 4.9 mph7.9 kmh 30.03 in1016.9 mb 0.00 in0.0 mm 0.00 in0.0 mm 0.00 in0.0 mm
09:14 AM 12.4°F-10.9°C 7.2°F-13.8°C 79% 3.6 mph SE5.8 kmh SE 5.6 mph9.0 kmh 30.04 in1017.3 mb 0.00 in0.0 mm 0.00 in0.0 mm 0.00 in0.0 mm
09:19 AM 12.4°F-10.9°C 6.8°F-14.0°C 78% 3.4 mph ESE5.5 kmh ESE 5.1 mph8.2 kmh 30.04 in1017.3 mb 0.00 in0.0 mm 0.00 in0.0 mm 0.00 in0.0 mm
09:24 AM 12.6°F-10.8°C 7.0°F-13.9°C 78% 2.2 mph SSE3.5 kmh SSE 3.1 mph5.0 kmh 30.03 in1016.9 mb 0.00 in0.0 mm 0.00 in0.0 mm 0.00 in0.0 mm
09:29 AM 12.6°F-10.8°C 7.0°F-13.9°C 78% 3.1 mph SE5.0 kmh SE 5.1 mph8.2 kmh 30.03 in1016.9 mb 0.00 in0.0 mm 0.00 in0.0 mm 0.00 in0.0 mm
09:34 AM 12.9°F-10.6°C 6.8°F-14.0°C 76% 2.7 mph SE4.3 kmh SE 4.7 mph7.6 kmh 30.02 in1016.6 mb 0.00 in0.0 mm 0.00 in0.0 mm 0.00 in0.0 mm
09:39 AM 12.9°F-10.6°C 6.8°F-14.0°C 76% 2.9 mph SE4.7 kmh SE 5.1 mph8.2 kmh 30.02 in1016.6 mb 0.00 in0.0 mm 0.00 in0.0 mm 0.00 in0.0 mm
09:44 AM 13.1°F-10.5°C 6.6°F-14.1°C 75% 3.1 mph SE5.0 kmh SE 6.0 mph9.7 kmh 30.02 in1016.6 mb 0.00 in0.0 mm 0.00 in0.0 mm 0.00 in0.0 mm
09:49 AM 13.3°F-10.4°C 6.8°F-14.0°C 75% 3.6 mph SSE5.8 kmh SSE 5.6 mph9.0 kmh 30.01 in1016.3 mb 0.00 in0.0 mm 0.00 in0.0 mm 0.00 in0.0 mm
09:54 AM 13.5°F-10.3°C 6.8°F-14.0°C 74% 4.3 mph SE6.9 kmh SE 6.5 mph10.5 kmh 30.01 in1016.3 mb 0.00 in0.0 mm 0.00 in0.0 mm 0.00 in0.0 mm
09:59 AM 13.5°F-10.3°C 6.4°F-14.2°C 73% 3.8 mph SE6.1 kmh SE 5.1 mph8.2 kmh 30.00 in1015.9 mb 0.00 in0.0 mm 0.00 in0.0 mm 0.00 in0.0 mm
10:04 AM 13.6°F-10.2°C 5.9°F-14.5°C 71% 4.7 mph S7.6 kmh S 8.5 mph13.7 kmh 30.01 in1016.3 mb 0.00 in0.0 mm 0.00 in0.0 mm 0.00 in0.0 mm
10:09 AM 13.6°F-10.2°C 5.7°F-14.6°C 70% 3.8 mph SE6.1 kmh SE 5.8 mph9.3 kmh 30.01 in1016.3 mb 0.00 in0.0 mm 0.00 in0.0 mm 0.00 in0.0 mm
10:14 AM 13.8°F-10.1°C 5.9°F-14.5°C 70% 3.8 mph SE6.1 kmh SE 5.6 mph9.0 kmh 30.01 in1016.3 mb 0.00 in0.0 mm 0.00 in0.0 mm 0.00 in0.0 mm
10:19 AM 14.2°F-9.9°C 6.3°F-14.3°C 70% 4.0 mph SSE6.4 kmh SSE 5.6 mph9.0 kmh 30.01 in1016.3 mb 0.00 in0.0 mm 0.00 in0.0 mm 0.00 in0.0 mm
10:24 AM 14.2°F-9.9°C 6.3°F-14.3°C 70% 3.6 mph SE5.8 kmh SE 5.1 mph8.2 kmh 30.01 in1016.3 mb 0.00 in0.0 mm 0.00 in0.0 mm 0.00 in0.0 mm
10:29 AM 14.4°F-9.8°C 6.4°F-14.2°C 70% 4.0 mph SE6.4 kmh SE 5.8 mph9.3 kmh 30.01 in1016.3 mb 0.00 in0.0 mm 0.00 in0.0 mm 0.00 in0.0 mm
10:34 AM 14.5°F-9.7°C 6.3°F-14.3°C 69% 4.3 mph SE6.9 kmh SE 6.7 mph10.8 kmh 30.01 in1016.3 mb 0.00 in0.0 mm 0.00 in0.0 mm 0.00 in0.0 mm
10:39 AM 14.7°F-9.6°C 6.1°F-14.4°C 68% 4.3 mph SSE6.9 kmh SSE 6.0 mph9.7 kmh 30.00 in1015.9 mb 0.00 in0.0 mm 0.00 in0.0 mm 0.00 in0.0 mm
10:44 AM 14.9°F-9.5°C 6.3°F-14.3°C 68% 4.9 mph S7.9 kmh S 7.6 mph12.2 kmh 29.99 in1015.6 mb 0.00 in0.0 mm 0.00 in0.0 mm 0.00 in0.0 mm
10:49 AM 15.1°F-9.4°C 6.1°F-14.4°C 67% 5.8 mph SSE9.3 kmh SSE 9.2 mph14.8 kmh 29.99 in1015.6 mb 0.00 in0.0 mm 0.00 in0.0 mm 0.00 in0.0 mm
10:54 AM 15.3°F-9.3°C 6.3°F-14.3°C 67% 4.3 mph SSE6.9 kmh SSE 6.7 mph10.8 kmh 29.99 in1015.6 mb 0.00 in0.0 mm 0.00 in0.0 mm 0.00 in0.0 mm
10:59 AM 15.4°F-9.2°C 6.4°F-14.2°C 67% 5.4 mph SSE8.7 kmh SSE 7.8 mph12.6 kmh 29.99 in1015.6 mb 0.00 in0.0 mm 0.00 in0.0 mm 0.00 in0.0 mm
11:04 AM 15.6°F-9.1°C 7.0°F-13.9°C 68% 4.3 mph SE6.9 kmh SE 5.4 mph8.7 kmh 29.98 in1015.2 mb 0.00 in0.0 mm 0.00 in0.0 mm 0.00 in0.0 mm
11:09 AM 16.2°F-8.8°C 7.5°F-13.6°C 68% 4.9 mph SSE7.9 kmh SSE 6.9 mph11.1 kmh 29.97 in1014.9 mb 0.00 in0.0 mm 0.00 in0.0 mm 0.00 in0.0 mm
11:14 AM 16.2°F-8.8°C 7.5°F-13.6°C 68% 4.5 mph SSE7.2 kmh SSE 6.3 mph10.1 kmh 29.97 in1014.9 mb 0.00 in0.0 mm 0.00 in0.0 mm 0.00 in0.0 mm
11:19 AM 16.7°F-8.5°C 7.7°F-13.5°C 67% 4.7 mph S7.6 kmh S 6.5 mph10.5 kmh 29.96 in1014.6 mb 0.00 in0.0 mm 0.00 in0.0 mm 0.00 in0.0 mm
11:24 AM 16.5°F-8.6°C 7.5°F-13.6°C 67% 4.7 mph SE7.6 kmh SE 7.2 mph11.6 kmh 29.96 in1014.6 mb 0.00 in0.0 mm 0.00 in0.0 mm 0.00 in0.0 mm
11:29 AM 16.7°F-8.5°C 7.7°F-13.5°C 67% 4.0 mph SSE6.4 kmh SSE 5.1 mph8.2 kmh 29.96 in1014.6 mb 0.00 in0.0 mm 0.00 in0.0 mm 0.00 in0.0 mm
11:34 AM 16.7°F-8.5°C 7.7°F-13.5°C 67% 5.6 mph SSE9.0 kmh SSE 7.8 mph12.6 kmh 29.95 in1014.2 mb 0.00 in0.0 mm 0.00 in0.0 mm 0.00 in0.0 mm
11:39 AM 16.9°F-8.4°C 7.9°F-13.4°C 67% 4.3 mph SSE6.9 kmh SSE 8.1 mph13.0 kmh 29.95 in1014.2 mb 0.00 in0.0 mm 0.00 in0.0 mm 0.00 in0.0 mm
11:44 AM 17.2°F-8.2°C 8.2°F-13.2°C 67% 5.6 mph SE9.0 kmh SE 8.7 mph14.0 kmh 29.95 in1014.2 mb 0.00 in0.0 mm 0.00 in0.0 mm 0.00 in0.0 mm
11:49 AM 17.2°F-8.2°C 7.5°F-13.6°C 65% 5.6 mph SSE9.0 kmh SSE 8.7 mph14.0 kmh 29.96 in1014.6 mb 0.00 in0.0 mm 0.00 in0.0 mm 0.00 in0.0 mm
11:54 AM 17.4°F-8.1°C 8.4°F-13.1°C 67% 5.4 mph SE8.7 kmh SE 9.4 mph15.1 kmh 29.95 in1014.2 mb 0.00 in0.0 mm 0.00 in0.0 mm 0.00 in0.0 mm
11:59 AM 17.4°F-8.1°C 8.6°F-13.0°C 68% 4.7 mph SE7.6 kmh SE 6.7 mph10.8 kmh 29.94 in1013.9 mb 0.00 in0.0 mm 0.00 in0.0 mm 0.00 in0.0 mm
12:04 PM 17.6°F-8.0°C 8.8°F-12.9°C 68% 4.3 mph SE6.9 kmh SE 6.5 mph10.5 kmh 29.94 in1013.9 mb 0.00 in0.0 mm 0.00 in0.0 mm 0.00 in0.0 mm
12:09 PM 17.6°F-8.0°C 8.8°F-12.9°C 68% 4.3 mph SE6.9 kmh SE 7.6 mph12.2 kmh 29.93 in1013.5 mb 0.00 in0.0 mm 0.00 in0.0 mm 0.00 in0.0 mm
12:14 PM 17.8°F-7.9°C 8.6°F-13.0°C 67% 6.0 mph SE9.7 kmh SE 7.8 mph12.6 kmh 29.93 in1013.5 mb 0.00 in0.0 mm 0.00 in0.0 mm 0.00 in0.0 mm
12:19 PM 18.1°F-7.7°C 9.0°F-12.8°C 67% 4.3 mph S6.9 kmh S 6.3 mph10.1 kmh 29.93 in1013.5 mb 0.00 in0.0 mm 0.00 in0.0 mm 0.00 in0.0 mm
12:24 PM 18.3°F-7.6°C 9.5°F-12.5°C 68% 5.4 mph SSE8.7 kmh SSE 9.2 mph14.8 kmh 29.92 in1013.2 mb 0.00 in0.0 mm 0.00 in0.0 mm 0.00 in0.0 mm
12:29 PM 18.5°F-7.5°C 9.3°F-12.6°C 67% 4.7 mph SSE7.6 kmh SSE 7.4 mph11.9 kmh 29.92 in1013.2 mb 0.00 in0.0 mm 0.00 in0.0 mm 0.00 in0.0 mm
12:34 PM 18.9°F-7.3°C 9.7°F-12.4°C 67% 4.5 mph SSE7.2 kmh SSE 5.6 mph9.0 kmh 29.92 in1013.2 mb 0.00 in0.0 mm 0.00 in0.0 mm 0.00 in0.0 mm
12:39 PM 19.2°F-7.1°C 10.0°F-12.2°C 67% 5.6 mph SE9.0 kmh SE 7.6 mph12.2 kmh 29.91 in1012.9 mb 0.00 in0.0 mm 0.00 in0.0 mm 0.00 in0.0 mm
12:44 PM 19.6°F-6.9°C 9.7°F-12.4°C 65% 4.9 mph SSE7.9 kmh SSE 10.5 mph16.9 kmh 29.90 in1012.5 mb 0.00 in0.0 mm 0.00 in0.0 mm 0.00 in0.0 mm
12:49 PM 19.9°F-6.7°C 10.0°F-12.2°C 65% 5.4 mph SE8.7 kmh SE 8.7 mph14.0 kmh 29.90 in1012.5 mb 0.00 in0.0 mm 0.00 in0.0 mm 0.00 in0.0 mm
12:54 PM 20.3°F-6.5°C 10.4°F-12.0°C 65% 5.1 mph SSE8.2 kmh SSE 6.9 mph11.1 kmh 29.90 in1012.5 mb 0.00 in0.0 mm 0.00 in0.0 mm 0.00 in0.0 mm
12:59 PM 20.7°F-6.3°C 10.4°F-12.0°C 64% 4.5 mph SSE7.2 kmh SSE 8.3 mph13.4 kmh 29.89 in1012.2 mb 0.00 in0.0 mm 0.00 in0.0 mm 0.00 in0.0 mm
01:04 PM 20.8°F-6.2°C 10.6°F-11.9°C 64% 5.4 mph SE8.7 kmh SE 7.2 mph11.6 kmh 29.88 in1011.9 mb 0.00 in0.0 mm 0.00 in0.0 mm 0.00 in0.0 mm
01:09 PM 21.0°F-6.1°C 10.4°F-12.0°C 63% 6.7 mph SSE10.8 kmh SSE 9.2 mph14.8 kmh 29.88 in1011.9 mb 0.00 in0.0 mm 0.00 in0.0 mm 0.00 in0.0 mm
01:14 PM 21.2°F-6.0°C 10.6°F-11.9°C 63% 6.9 mph SSE11.1 kmh SSE 9.8 mph15.8 kmh 29.88 in1011.9 mb 0.00 in0.0 mm 0.00 in0.0 mm 0.00 in0.0 mm
01:19 PM 21.6°F-5.8°C 11.3°F-11.5°C 64% 4.7 mph SE7.6 kmh SE 7.6 mph12.2 kmh 29.87 in1011.5 mb 0.00 in0.0 mm 0.00 in0.0 mm 0.00 in0.0 mm
01:24 PM 21.7°F-5.7°C 11.1°F-11.6°C 63% 6.0 mph SSE9.7 kmh SSE 8.7 mph14.0 kmh 29.86 in1011.2 mb 0.00 in0.0 mm 0.00 in0.0 mm 0.00 in0.0 mm
01:29 PM 21.9°F-5.6°C 10.9°F-11.7°C 62% 5.6 mph SSE9.0 kmh SSE 8.5 mph13.7 kmh 29.86 in1011.2 mb 0.00 in0.0 mm 0.00 in0.0 mm 0.00 in0.0 mm
01:34 PM 22.3°F-5.4°C 11.3°F-11.5°C 62% 5.8 mph S9.3 kmh S 8.1 mph13.0 kmh 29.85 in1010.8 mb 0.00 in0.0 mm 0.00 in0.0 mm 0.00 in0.0 mm
01:39 PM 22.5°F-5.3°C 11.5°F-11.4°C 62% 7.6 mph SSE12.2 kmh SSE 12.3 mph19.8 kmh 29.85 in1010.8 mb 0.00 in0.0 mm 0.00 in0.0 mm 0.00 in0.0 mm
01:44 PM 22.8°F-5.1°C 11.7°F-11.3°C 62% 6.9 mph SE11.1 kmh SE 13.0 mph20.9 kmh 29.85 in1010.8 mb 0.00 in0.0 mm 0.00 in0.0 mm 0.00 in0.0 mm
01:49 PM 23.2°F-4.9°C 12.0°F-11.1°C 62% 7.6 mph SSE12.2 kmh SSE 11.4 mph18.3 kmh 29.85 in1010.8 mb 0.00 in0.0 mm 0.00 in0.0 mm 0.00 in0.0 mm
01:54 PM 23.5°F-4.7°C 11.7°F-11.3°C 60% 4.0 mph SSE6.4 kmh SSE 6.3 mph10.1 kmh 29.84 in1010.5 mb 0.00 in0.0 mm 0.00 in0.0 mm 0.00 in0.0 mm
01:59 PM 23.5°F-4.7°C 11.7°F-11.3°C 60% 5.6 mph SE9.0 kmh SE 8.7 mph14.0 kmh 29.83 in1010.2 mb 0.00 in0.0 mm 0.00 in0.0 mm 0.00 in0.0 mm
02:04 PM 23.7°F-4.6°C 12.6°F-10.8°C 62% 6.7 mph SSE10.8 kmh SSE 9.4 mph15.1 kmh 29.82 in1009.8 mb 0.00 in0.0 mm 0.00 in0.0 mm 0.00 in0.0 mm
02:09 PM 24.1°F-4.4°C 12.9°F-10.6°C 62% 5.1 mph SSE8.2 kmh SSE 7.4 mph11.9 kmh 29.82 in1009.8 mb 0.00 in0.0 mm 0.00 in0.0 mm 0.00 in0.0 mm
02:14 PM 24.3°F-4.3°C 13.1°F-10.5°C 62% 4.7 mph SE7.6 kmh SE 7.6 mph12.2 kmh 29.81 in1009.5 mb 0.00 in0.0 mm 0.00 in0.0 mm 0.00 in0.0 mm
02:19 PM 24.4°F-4.2°C 13.3°F-10.4°C 62% 7.8 mph SSE12.6 kmh SSE 9.8 mph15.8 kmh 29.81 in1009.5 mb 0.00 in0.0 mm 0.00 in0.0 mm 0.00 in0.0 mm
02:24 PM 24.8°F-4.0°C 13.6°F-10.2°C 62% 4.3 mph SE6.9 kmh SE 7.2 mph11.6 kmh 29.80 in1009.1 mb 0.00 in0.0 mm 0.00 in0.0 mm 0.00 in0.0 mm
02:29 PM 25.2°F-3.8°C 14.0°F-10.0°C 62% 5.6 mph SE9.0 kmh SE 9.8 mph15.8 kmh 29.80 in1009.1 mb 0.00 in0.0 mm 0.00 in0.0 mm 0.00 in0.0 mm
02:34 PM 25.3°F-3.7°C 14.5°F-9.7°C 63% 7.6 mph SSE12.2 kmh SSE 11.4 mph18.3 kmh 29.80 in1009.1 mb 0.00 in0.0 mm 0.00 in0.0 mm 0.00 in0.0 mm
02:39 PM 25.7°F-3.5°C 14.5°F-9.7°C 62% 5.6 mph SSE9.0 kmh SSE 9.4 mph15.1 kmh 29.79 in1008.8 mb 0.00 in0.0 mm 0.00 in0.0 mm 0.00 in0.0 mm
02:44 PM 25.9°F-3.4°C 15.4°F-9.2°C 64% 6.0 mph SSE9.7 kmh SSE 9.2 mph14.8 kmh 29.79 in1008.8 mb 0.00 in0.0 mm 0.00 in0.0 mm 0.00 in0.0 mm
02:49 PM 26.2°F-3.2°C 15.4°F-9.2°C 63% 5.6 mph S9.0 kmh S 10.3 mph16.6 kmh 29.79 in1008.8 mb 0.00 in0.0 mm 0.00 in0.0 mm 0.00 in0.0 mm
02:54 PM 26.6°F-3.0°C 15.6°F-9.1°C 63% 5.1 mph SE8.2 kmh SE 6.9 mph11.1 kmh 29.78 in1008.5 mb 0.00 in0.0 mm 0.00 in0.0 mm 0.00 in0.0 mm
02:59 PM 26.8°F-2.9°C 16.2°F-8.8°C 64% 7.4 mph SSE11.9 kmh SSE 12.1 mph19.5 kmh 29.78 in1008.5 mb 0.00 in0.0 mm 0.00 in0.0 mm 0.00 in0.0 mm
03:04 PM 27.1°F-2.7°C 16.5°F-8.6°C 64% 5.4 mph S8.7 kmh S 7.4 mph11.9 kmh 29.79 in1008.8 mb 0.00 in0.0 mm 0.00 in0.0 mm 0.00 in0.0 mm
03:09 PM 27.5°F-2.5°C 16.9°F-8.4°C 64% 5.1 mph S8.2 kmh S 8.9 mph14.3 kmh 29.78 in1008.5 mb 0.00 in0.0 mm 0.00 in0.0 mm 0.00 in0.0 mm
03:14 PM 27.9°F-2.3°C 17.2°F-8.2°C 64% 4.5 mph SSE7.2 kmh SSE 6.0 mph9.7 kmh 29.78 in1008.5 mb 0.00 in0.0 mm 0.00 in0.0 mm 0.00 in0.0 mm
03:19 PM 28.2°F-2.1°C 17.6°F-8.0°C 64% 4.9 mph SSE7.9 kmh SSE 9.2 mph14.8 kmh 29.77 in1008.1 mb 0.00 in0.0 mm 0.00 in0.0 mm 0.00 in0.0 mm
03:24 PM 28.4°F-2.0°C 17.8°F-7.9°C 64% 4.9 mph S7.9 kmh S 7.4 mph11.9 kmh 29.77 in1008.1 mb 0.00 in0.0 mm 0.00 in0.0 mm 0.00 in0.0 mm
03:29 PM 28.6°F-1.9°C 18.0°F-7.8°C 64% 4.7 mph SSE7.6 kmh SSE 8.7 mph14.0 kmh 29.75 in1007.5 mb 0.00 in0.0 mm 0.00 in0.0 mm 0.00 in0.0 mm
03:34 PM 28.9°F-1.7°C 18.3°F-7.6°C 64% 4.5 mph S7.2 kmh S 8.3 mph13.4 kmh 29.75 in1007.5 mb 0.00 in0.0 mm 0.00 in0.0 mm 0.00 in0.0 mm
03:39 PM 29.1°F-1.6°C 18.5°F-7.5°C 64% 5.6 mph SSE9.0 kmh SSE 6.9 mph11.1 kmh 29.75 in1007.5 mb 0.00 in0.0 mm 0.00 in0.0 mm 0.00 in0.0 mm
03:44 PM 29.3°F-1.5°C 19.0°F-7.2°C 65% 5.4 mph SSE8.7 kmh SSE 9.8 mph15.8 kmh 29.75 in1007.5 mb 0.00 in0.0 mm 0.00 in0.0 mm 0.00 in0.0 mm
03:49 PM 29.7°F-1.3°C 19.0°F-7.2°C 64% 5.4 mph S8.7 kmh S 10.3 mph16.6 kmh 29.75 in1007.5 mb 0.00 in0.0 mm 0.00 in0.0 mm 0.00 in0.0 mm
03:54 PM 29.7°F-1.3°C 19.4°F-7.0°C 65% 4.7 mph SSE7.6 kmh SSE 6.7 mph10.8 kmh 29.75 in1007.5 mb 0.00 in0.0 mm 0.00 in0.0 mm 0.00 in0.0 mm
03:59 PM 29.8°F-1.2°C 19.6°F-6.9°C 65% 5.4 mph SSE8.7 kmh SSE 8.3 mph13.4 kmh 29.74 in1007.1 mb 0.00 in0.0 mm 0.00 in0.0 mm 0.00 in0.0 mm
04:04 PM 30.0°F-1.1°C 19.8°F-6.8°C 65% 6.5 mph SSE10.5 kmh SSE 10.5 mph16.9 kmh 29.74 in1007.1 mb 0.00 in0.0 mm 0.00 in0.0 mm 0.00 in0.0 mm
04:09 PM 30.2°F-1.0°C 19.8°F-6.8°C 65% 6.0 mph SSE9.7 kmh SSE 10.1 mph16.3 kmh 29.73 in1006.8 mb 0.00 in0.0 mm 0.00 in0.0 mm 0.00 in0.0 mm
04:14 PM 30.4°F-0.9°C 19.9°F-6.7°C 65% 5.6 mph S9.0 kmh S 8.1 mph13.0 kmh 29.73 in1006.8 mb 0.00 in0.0 mm 0.00 in0.0 mm 0.00 in0.0 mm
04:19 PM 30.6°F-0.8°C 20.1°F-6.6°C 65% 6.3 mph SSE10.1 kmh SSE 8.5 mph13.7 kmh 29.73 in1006.8 mb 0.00 in0.0 mm 0.00 in0.0 mm 0.00 in0.0 mm
04:24 PM 30.7°F-0.7°C 21.4°F-5.9°C 68% 5.1 mph SSE8.2 kmh SSE 8.5 mph13.7 kmh 29.73 in1006.8 mb 0.00 in0.0 mm 0.00 in0.0 mm 0.00 in0.0 mm
04:29 PM 30.9°F-0.6°C 21.2°F-6.0°C 67% 4.3 mph SE6.9 kmh SE 7.6 mph12.2 kmh 29.73 in1006.8 mb 0.00 in0.0 mm 0.00 in0.0 mm 0.00 in0.0 mm
04:34 PM 31.1°F-0.5°C 21.7°F-5.7°C 68% 6.9 mph SSE11.1 kmh SSE 8.7 mph14.0 kmh 29.73 in1006.8 mb 0.00 in0.0 mm 0.00 in0.0 mm 0.00 in0.0 mm
04:39 PM 31.3°F-0.4°C 21.9°F-5.6°C 68% 5.8 mph SSE9.3 kmh SSE 8.5 mph13.7 kmh 29.73 in1006.8 mb 0.00 in0.0 mm 0.00 in0.0 mm 0.00 in0.0 mm
04:44 PM 31.5°F-0.3°C 22.1°F-5.5°C 68% 4.3 mph SSE6.9 kmh SSE 7.6 mph12.2 kmh 29.72 in1006.4 mb 0.00 in0.0 mm 0.00 in0.0 mm 0.00 in0.0 mm
04:49 PM 31.6°F-0.2°C 22.3°F-5.4°C 68% 4.9 mph S7.9 kmh S 6.7 mph10.8 kmh 29.72 in1006.4 mb 0.00 in0.0 mm 0.00 in0.0 mm 0.00 in0.0 mm
04:54 PM 31.6°F-0.2°C 22.3°F-5.4°C 68% 5.6 mph SSE9.0 kmh SSE 10.1 mph16.3 kmh 29.72 in1006.4 mb 0.00 in0.0 mm 0.00 in0.0 mm 0.00 in0.0 mm
04:59 PM 32.0°F0.0°C 22.6°F-5.2°C 68% 6.0 mph SSE9.7 kmh SSE 8.5 mph13.7 kmh 29.71 in1006.1 mb 0.00 in0.0 mm 0.00 in0.0 mm 0.00 in0.0 mm
05:04 PM 32.0°F0.0°C 23.0°F-5.0°C 69% 4.3 mph S6.9 kmh S 6.5 mph10.5 kmh 29.72 in1006.4 mb 0.00 in0.0 mm 0.00 in0.0 mm 0.00 in0.0 mm
05:09 PM 32.2°F0.1°C 23.2°F-4.9°C 69% 5.1 mph SE8.2 kmh SE 7.2 mph11.6 kmh 29.71 in1006.1 mb 0.00 in0.0 mm 0.00 in0.0 mm 0.00 in0.0 mm
05:14 PM 32.7°F0.4°C 23.7°F-4.6°C 69% 5.4 mph S8.7 kmh S 7.8 mph12.6 kmh 29.71 in1006.1 mb 0.00 in0.0 mm 0.00 in0.0 mm 0.00 in0.0 mm
05:19 PM 32.7°F0.4°C 23.7°F-4.6°C 69% 6.7 mph SSE10.8 kmh SSE 8.7 mph14.0 kmh 29.71 in1006.1 mb 0.00 in0.0 mm 0.00 in0.0 mm 0.00 in0.0 mm
05:24 PM 32.7°F0.4°C 24.1°F-4.4°C 70% 5.1 mph SSW8.2 kmh SSW 10.5 mph16.9 kmh 29.71 in1006.1 mb 0.00 in0.0 mm 0.00 in0.0 mm 0.00 in0.0 mm
05:34 PM 32.9°F0.5°C 24.3°F-4.3°C 70% 6.3 mph SSE10.1 kmh SSE 10.5 mph16.9 kmh 29.70 in1005.8 mb 0.00 in0.0 mm 0.00 in0.0 mm 0.00 in0.0 mm
05:39 PM 33.1°F0.6°C 24.4°F-4.2°C 70% 5.1 mph SSW8.2 kmh SSW 7.8 mph12.6 kmh 29.70 in1005.8 mb 0.00 in0.0 mm 0.00 in0.0 mm 0.00 in0.0 mm
05:44 PM 33.3°F0.7°C 24.6°F-4.1°C 70% 6.9 mph S11.1 kmh S 12.1 mph19.5 kmh 29.70 in1005.8 mb 0.00 in0.0 mm 0.00 in0.0 mm 0.00 in0.0 mm
05:49 PM 33.4°F0.8°C 25.0°F-3.9°C 71% 6.3 mph S10.1 kmh S 8.9 mph14.3 kmh 29.70 in1005.8 mb 0.00 in0.0 mm 0.00 in0.0 mm 0.00 in0.0 mm
05:54 PM 33.6°F0.9°C 25.9°F-3.4°C 73% 5.8 mph S9.3 kmh S 8.5 mph13.7 kmh 29.70 in1005.8 mb 0.00 in0.0 mm 0.00 in0.0 mm 0.00 in0.0 mm
05:59 PM 33.8°F1.0°C 26.1°F-3.3°C 73% 6.3 mph S10.1 kmh S 10.5 mph16.9 kmh 29.69 in1005.4 mb 0.00 in0.0 mm 0.00 in0.0 mm 0.00 in0.0 mm
06:04 PM 34.0°F1.1°C 26.6°F-3.0°C 74% 6.3 mph S10.1 kmh S 9.4 mph15.1 kmh 29.70 in1005.8 mb 0.00 in0.0 mm 0.00 in0.0 mm 0.00 in0.0 mm
06:09 PM 34.2°F1.2°C 28.0°F-2.2°C 78% 9.4 mph S15.1 kmh S 18.3 mph29.5 kmh 29.70 in1005.8 mb 0.00 in0.0 mm 0.00 in0.0 mm 0.00 in0.0 mm
06:14 PM 34.3°F1.3°C 27.5°F-2.5°C 76% 4.7 mph S7.6 kmh S 8.1 mph13.0 kmh 29.69 in1005.4 mb 0.00 in0.0 mm 0.00 in0.0 mm 0.00 in0.0 mm
06:19 PM 34.3°F1.3°C 28.2°F-2.1°C 78% 7.6 mph SSW12.2 kmh SSW 10.5 mph16.9 kmh 29.69 in1005.4 mb 0.00 in0.0 mm 0.00 in0.0 mm 0.00 in0.0 mm
06:24 PM 34.5°F1.4°C 28.8°F-1.8°C 79% 6.9 mph S11.1 kmh S 14.1 mph22.7 kmh 29.69 in1005.4 mb 0.00 in0.0 mm 0.00 in0.0 mm 0.00 in0.0 mm
06:29 PM 34.7°F1.5°C 29.1°F-1.6°C 80% 7.4 mph S11.9 kmh S 10.1 mph16.3 kmh 29.69 in1005.4 mb 0.00 in0.0 mm 0.00 in0.0 mm 0.00 in0.0 mm
06:34 PM 34.5°F1.4°C 28.9°F-1.7°C 80% 6.7 mph SSE10.8 kmh SSE 9.6 mph15.4 kmh 29.69 in1005.4 mb 0.00 in0.0 mm 0.00 in0.0 mm 0.00 in0.0 mm
06:39 PM 34.5°F1.4°C 29.3°F-1.5°C 81% 5.8 mph SSW9.3 kmh SSW 7.8 mph12.6 kmh 29.69 in1005.4 mb 0.00 in0.0 mm 0.00 in0.0 mm 0.00 in0.0 mm
06:44 PM 34.7°F1.5°C 30.0°F-1.1°C 83% 8.3 mph SSW13.4 kmh SSW 16.1 mph25.9 kmh 29.69 in1005.4 mb 0.00 in0.0 mm 0.00 in0.0 mm 0.00 in0.0 mm
06:49 PM 34.7°F1.5°C 30.0°F-1.1°C 83% 5.6 mph S9.0 kmh S 9.4 mph15.1 kmh 29.69 in1005.4 mb 0.00 in0.0 mm 0.00 in0.0 mm 0.00 in0.0 mm
06:54 PM 34.9°F1.6°C 30.6°F-0.8°C 84% 5.6 mph SE9.0 kmh SE 8.5 mph13.7 kmh 29.68 in1005.1 mb 0.00 in0.0 mm 0.00 in0.0 mm 0.00 in0.0 mm
06:59 PM 34.9°F1.6°C 30.9°F-0.6°C 85% 6.3 mph SSW10.1 kmh SSW 10.5 mph16.9 kmh 29.69 in1005.4 mb 0.00 in0.0 mm 0.00 in0.0 mm 0.00 in0.0 mm
07:04 PM 34.9°F1.6°C 31.1°F-0.5°C 86% 5.8 mph S9.3 kmh S 11.6 mph18.7 kmh 29.68 in1005.1 mb 0.00 in0.0 mm 0.00 in0.0 mm 0.00 in0.0 mm
07:09 PM 34.9°F1.6°C 31.6°F-0.2°C 88% 7.4 mph SSW11.9 kmh SSW 11.9 mph19.2 kmh 29.68 in1005.1 mb 0.00 in0.0 mm 0.00 in0.0 mm 0.00 in0.0 mm
07:14 PM 34.9°F1.6°C 31.6°F-0.2°C 88% 5.8 mph S9.3 kmh S 9.4 mph15.1 kmh 29.68 in1005.1 mb 0.00 in0.0 mm 0.00 in0.0 mm 0.00 in0.0 mm
07:19 PM 34.7°F1.5°C 31.5°F-0.3°C 88% 6.9 mph S11.1 kmh S 13.4 mph21.6 kmh 29.67 in1004.7 mb 0.00 in0.0 mm 0.00 in0.0 mm 0.00 in0.0 mm
07:24 PM 34.7°F1.5°C 31.8°F-0.1°C 89% 7.6 mph SSW12.2 kmh SSW 13.9 mph22.4 kmh 29.68 in1005.1 mb 0.00 in0.0 mm 0.00 in0.0 mm 0.00 in0.0 mm
07:29 PM 34.7°F1.5°C 31.8°F-0.1°C 89% 4.7 mph S7.6 kmh S 6.5 mph10.5 kmh 29.68 in1005.1 mb 0.00 in0.0 mm 0.00 in0.0 mm 0.00 in0.0 mm
07:34 PM 34.7°F1.5°C 32.0°F0.0°C 90% 5.6 mph S9.0 kmh S 9.2 mph14.8 kmh 29.68 in1005.1 mb 0.00 in0.0 mm 0.00 in0.0 mm 0.00 in0.0 mm
07:39 PM 34.7°F1.5°C 32.0°F0.0°C 90% 4.7 mph SSE7.6 kmh SSE 7.4 mph11.9 kmh 29.68 in1005.1 mb 0.00 in0.0 mm 0.00 in0.0 mm 0.00 in0.0 mm
07:44 PM 34.9°F1.6°C 32.2°F0.1°C 90% 4.7 mph S7.6 kmh S 11.2 mph18.0 kmh 29.68 in1005.1 mb 0.00 in0.0 mm 0.00 in0.0 mm 0.00 in0.0 mm
07:49 PM 34.9°F1.6°C 32.2°F0.1°C 90% 7.4 mph S11.9 kmh S 11.2 mph18.0 kmh 29.67 in1004.7 mb 0.01 in0.3 mm 0.12 in3.0 mm 0.01 in0.3 mm
07:54 PM 35.1°F1.7°C 32.7°F0.4°C 91% 6.3 mph S10.1 kmh S 12.8 mph20.6 kmh 29.68 in1005.1 mb 0.01 in0.3 mm 0.00 in0.0 mm 0.01 in0.3 mm
07:59 PM 35.2°F1.8°C 32.9°F0.5°C 91% 5.8 mph S9.3 kmh S 11.9 mph19.2 kmh 29.67 in1004.7 mb 0.01 in0.3 mm 0.00 in0.0 mm 0.01 in0.3 mm
08:04 PM 35.2°F1.8°C 32.9°F0.5°C 91% 7.8 mph SW12.6 kmh SW 13.4 mph21.6 kmh 29.68 in1005.1 mb 0.01 in0.3 mm 0.00 in0.0 mm 0.02 in0.5 mm
08:09 PM 35.2°F1.8°C 32.9°F0.5°C 91% 6.5 mph S10.5 kmh S 11.0 mph17.7 kmh 29.68 in1005.1 mb 0.01 in0.3 mm 0.00 in0.0 mm 0.02 in0.5 mm
08:14 PM 35.4°F1.9°C 33.1°F0.6°C 91% 6.0 mph SSW9.7 kmh SSW 12.8 mph20.6 kmh 29.68 in1005.1 mb 0.02 in0.5 mm 0.12 in3.0 mm 0.03 in0.8 mm
08:19 PM 35.4°F1.9°C 33.1°F0.6°C 91% 5.4 mph S8.7 kmh S 9.4 mph15.1 kmh 29.68 in1005.1 mb 0.02 in0.5 mm 0.00 in0.0 mm 0.03 in0.8 mm
08:24 PM 35.4°F1.9°C 33.1°F0.6°C 91% 6.3 mph SSW10.1 kmh SSW 9.4 mph15.1 kmh 29.68 in1005.1 mb 0.03 in0.8 mm 0.12 in3.0 mm 0.04 in1.0 mm
08:29 PM 35.6°F2.0°C 33.3°F0.7°C 91% 3.1 mph S5.0 kmh S 5.1 mph8.2 kmh 29.68 in1005.1 mb 0.03 in0.8 mm 0.00 in0.0 mm 0.04 in1.0 mm
08:34 PM 35.6°F2.0°C 33.3°F0.7°C 91% 3.8 mph SSW6.1 kmh SSW 6.3 mph10.1 kmh 29.68 in1005.1 mb 0.03 in0.8 mm 0.00 in0.0 mm 0.04 in1.0 mm
08:39 PM 35.6°F2.0°C 33.8°F1.0°C 93% 5.4 mph S8.7 kmh S 8.7 mph14.0 kmh 29.67 in1004.7 mb 0.03 in0.8 mm 0.00 in0.0 mm 0.04 in1.0 mm
08:44 PM 35.6°F2.0°C 33.8°F1.0°C 93% 6.3 mph SSW10.1 kmh SSW 11.2 mph18.0 kmh 29.67 in1004.7 mb 0.03 in0.8 mm 0.00 in0.0 mm 0.04 in1.0 mm
08:49 PM 35.8°F2.1°C 34.0°F1.1°C 93% 5.4 mph SSW8.7 kmh SSW 8.1 mph13.0 kmh 29.67 in1004.7 mb 0.04 in1.0 mm 0.12 in3.0 mm 0.05 in1.3 mm
08:54 PM 35.8°F2.1°C 34.0°F1.1°C 93% 6.0 mph SSE9.7 kmh SSE 8.3 mph13.4 kmh 29.67 in1004.7 mb 0.04 in1.0 mm 0.00 in0.0 mm 0.05 in1.3 mm
08:59 PM 35.8°F2.1°C 34.0°F1.1°C 93% 5.4 mph SSW8.7 kmh SSW 7.8 mph12.6 kmh 29.67 in1004.7 mb 0.04 in1.0 mm 0.00 in0.0 mm 0.05 in1.3 mm
09:04 PM 36.0°F2.2°C 34.2°F1.2°C 93% 5.4 mph S8.7 kmh S 8.5 mph13.7 kmh 29.67 in1004.7 mb 0.04 in1.0 mm 0.00 in0.0 mm 0.05 in1.3 mm
09:09 PM 36.0°F2.2°C 34.2°F1.2°C 93% 4.7 mph S7.6 kmh S 7.4 mph11.9 kmh 29.67 in1004.7 mb 0.01 in0.3 mm 0.00 in0.0 mm 0.06 in1.5 mm
09:14 PM 35.8°F2.1°C 34.0°F1.1°C 93% 5.8 mph SSW9.3 kmh SSW 8.5 mph13.7 kmh 29.67 in1004.7 mb 0.01 in0.3 mm 0.00 in0.0 mm 0.06 in1.5 mm
09:19 PM 36.0°F2.2°C 34.2°F1.2°C 93% 6.7 mph S10.8 kmh S 12.1 mph19.5 kmh 29.67 in1004.7 mb 0.01 in0.3 mm 0.00 in0.0 mm 0.06 in1.5 mm
09:24 PM 36.1°F2.3°C 34.3°F1.3°C 93% 5.1 mph S8.2 kmh S 8.7 mph14.0 kmh 29.67 in1004.7 mb 0.01 in0.3 mm 0.00 in0.0 mm 0.06 in1.5 mm
09:29 PM 36.1°F2.3°C 34.3°F1.3°C 93% 3.8 mph SSW6.1 kmh SSW 6.9 mph11.1 kmh 29.67 in1004.7 mb 0.02 in0.5 mm 0.12 in3.0 mm 0.07 in1.8 mm
09:34 PM 36.1°F2.3°C 34.3°F1.3°C 93% 4.3 mph S6.9 kmh S 7.4 mph11.9 kmh 29.67 in1004.7 mb 0.02 in0.5 mm 0.00 in0.0 mm 0.07 in1.8 mm
09:39 PM 36.5°F2.5°C 34.7°F1.5°C 93% 5.1 mph S8.2 kmh S 7.8 mph12.6 kmh 29.66 in1004.4 mb 0.02 in0.5 mm 0.00 in0.0 mm 0.07 in1.8 mm
09:44 PM 36.3°F2.4°C 34.5°F1.4°C 93% 4.5 mph SSW7.2 kmh SSW 7.2 mph11.6 kmh 29.67 in1004.7 mb 0.03 in0.8 mm 0.12 in3.0 mm 0.08 in2.0 mm
09:49 PM 36.3°F2.4°C 34.5°F1.4°C 93% 5.6 mph S9.0 kmh S 9.2 mph14.8 kmh 29.66 in1004.4 mb 0.03 in0.8 mm 0.00 in0.0 mm 0.08 in2.0 mm
09:54 PM 36.3°F2.4°C 34.5°F1.4°C 93% 5.8 mph SSW9.3 kmh SSW 10.7 mph17.2 kmh 29.66 in1004.4 mb 0.04 in1.0 mm 0.12 in3.0 mm 0.09 in2.3 mm
09:59 PM 36.3°F2.4°C 34.5°F1.4°C 93% 5.1 mph S8.2 kmh S 10.1 mph16.3 kmh 29.66 in1004.4 mb 0.04 in1.0 mm 0.00 in0.0 mm 0.09 in2.3 mm
10:04 PM 36.3°F2.4°C 35.1°F1.7°C 95% 7.6 mph SSW12.2 kmh SSW 9.4 mph15.1 kmh 29.66 in1004.4 mb 0.01 in0.3 mm 0.00 in0.0 mm 0.10 in2.5 mm
10:09 PM 36.3°F2.4°C 35.1°F1.7°C 95% 8.1 mph SW13.0 kmh SW 16.3 mph26.2 kmh 29.66 in1004.4 mb 0.01 in0.3 mm 0.00 in0.0 mm 0.10 in2.5 mm
10:14 PM 36.5°F2.5°C 35.2°F1.8°C 95% 4.3 mph SW6.9 kmh SW 7.6 mph12.2 kmh 29.67 in1004.7 mb 0.02 in0.5 mm 0.12 in3.0 mm 0.11 in2.8 mm
10:19 PM 36.5°F2.5°C 35.2°F1.8°C 95% 6.3 mph SW10.1 kmh SW 11.0 mph17.7 kmh 29.66 in1004.4 mb 0.02 in0.5 mm 0.00 in0.0 mm 0.11 in2.8 mm
10:24 PM 36.5°F2.5°C 34.7°F1.5°C 93% 4.5 mph S7.2 kmh S 8.5 mph13.7 kmh 29.66 in1004.4 mb 0.03 in0.8 mm 0.12 in3.0 mm 0.12 in3.0 mm
10:29 PM 36.5°F2.5°C 35.2°F1.8°C 95% 8.9 mph SW14.3 kmh SW 14.1 mph22.7 kmh 29.66 in1004.4 mb 0.04 in1.0 mm 0.12 in3.0 mm 0.13 in3.3 mm
10:34 PM 36.5°F2.5°C 35.2°F1.8°C 95% 4.9 mph S7.9 kmh S 6.3 mph10.1 kmh 29.66 in1004.4 mb 0.05 in1.3 mm 0.12 in3.0 mm 0.14 in3.6 mm
10:39 PM 36.5°F2.5°C 35.2°F1.8°C 95% 4.3 mph SSE6.9 kmh SSE 7.4 mph11.9 kmh 29.66 in1004.4 mb 0.06 in1.5 mm 0.12 in3.0 mm 0.15 in3.8 mm
10:44 PM 36.5°F2.5°C 35.2°F1.8°C 95% 6.7 mph S10.8 kmh S 10.5 mph16.9 kmh 29.66 in1004.4 mb 0.06 in1.5 mm 0.00 in0.0 mm 0.15 in3.8 mm
10:49 PM 36.5°F2.5°C 35.2°F1.8°C 95% 4.5 mph SSW7.2 kmh SSW 6.9 mph11.1 kmh 29.65 in1004.1 mb 0.07 in1.8 mm 0.12 in3.0 mm 0.16 in4.1 mm
10:54 PM 36.3°F2.4°C 35.1°F1.7°C 95% 4.0 mph SSE6.4 kmh SSE 5.6 mph9.0 kmh 29.65 in1004.1 mb 0.07 in1.8 mm 0.00 in0.0 mm 0.16 in4.1 mm
10:59 PM 36.5°F2.5°C 35.2°F1.8°C 95% 4.3 mph S6.9 kmh S 7.6 mph12.2 kmh 29.65 in1004.1 mb 0.08 in2.0 mm 0.12 in3.0 mm 0.17 in4.3 mm
11:04 PM 36.3°F2.4°C 35.1°F1.7°C 95% 3.6 mph SSW5.8 kmh SSW 6.3 mph10.1 kmh 29.65 in1004.1 mb 0.01 in0.3 mm 0.00 in0.0 mm 0.18 in4.6 mm
11:09 PM 36.3°F2.4°C 35.1°F1.7°C 95% 2.2 mph SSW3.5 kmh SSW 4.3 mph6.9 kmh 29.65 in1004.1 mb 0.01 in0.3 mm 0.00 in0.0 mm 0.18 in4.6 mm
11:14 PM 36.3°F2.4°C 35.1°F1.7°C 95% 3.4 mph S5.5 kmh S 7.6 mph12.2 kmh 29.65 in1004.1 mb 0.02 in0.5 mm 0.12 in3.0 mm 0.19 in4.8 mm
11:19 PM 36.3°F2.4°C 35.1°F1.7°C 95% 4.3 mph SSW6.9 kmh SSW 7.6 mph12.2 kmh 29.65 in1004.1 mb 0.03 in0.8 mm 0.12 in3.0 mm 0.20 in5.1 mm
11:24 PM 36.5°F2.5°C 35.2°F1.8°C 95% 4.3 mph S6.9 kmh S 6.9 mph11.1 kmh 29.65 in1004.1 mb 0.03 in0.8 mm 0.00 in0.0 mm 0.20 in5.1 mm
11:29 PM 36.3°F2.4°C 35.1°F1.7°C 95% 4.3 mph SW6.9 kmh SW 6.5 mph10.5 kmh 29.65 in1004.1 mb 0.04 in1.0 mm 0.12 in3.0 mm 0.21 in5.3 mm
11:34 PM 36.5°F2.5°C 35.2°F1.8°C 95% 3.6 mph S5.8 kmh S 5.1 mph8.2 kmh 29.64 in1003.7 mb 0.05 in1.3 mm 0.12 in3.0 mm 0.22 in5.6 mm
11:39 PM 36.3°F2.4°C 35.1°F1.7°C 95% 6.0 mph SW9.7 kmh SW 8.7 mph14.0 kmh 29.64 in1003.7 mb 0.05 in1.3 mm 0.00 in0.0 mm 0.22 in5.6 mm
11:44 PM 36.5°F2.5°C 35.2°F1.8°C 95% 2.5 mph S4.0 kmh S 3.4 mph5.5 kmh 29.64 in1003.7 mb 0.05 in1.3 mm 0.00 in0.0 mm 0.22 in5.6 mm
11:49 PM 36.3°F2.4°C 35.1°F1.7°C 95% 5.1 mph S8.2 kmh S 8.5 mph13.7 kmh 29.64 in1003.7 mb 0.05 in1.3 mm 0.00 in0.0 mm 0.22 in5.6 mm
11:54 PM 36.5°F2.5°C 35.2°F1.8°C 95% 3.8 mph S6.1 kmh S 5.8 mph9.3 kmh 29.64 in1003.7 mb 0.05 in1.3 mm 0.00 in0.0 mm 0.22 in5.6 mm
11:59 PM 36.5°F2.5°C 35.2°F1.8°C 95% 3.1 mph SSE5.0 kmh SSE 5.6 mph9.0 kmh 29.64 in1003.7 mb 0.06 in1.5 mm 0.12 in3.0 mm 0.23 in5.8 mm